sensor_id;sensor_type;location;lat;lon;timestamp;P1;durP1;ratioP1;P2;durP2;ratioP2
22191;SDS011;11261;52.456;10.850;2022-08-01T00:01:29;2.35;;;1.85;;
22191;SDS011;11261;52.456;10.850;2022-08-01T00:03:58;2.50;;;2.05;;
22191;SDS011;11261;52.456;10.850;2022-08-01T00:06:26;2.90;;;2.40;;
22191;SDS011;11261;52.456;10.850;2022-08-01T00:08:54;3.72;;;2.63;;
22191;SDS011;11261;52.456;10.850;2022-08-01T00:11:22;2.80;;;2.50;;
22191;SDS011;11261;52.456;10.850;2022-08-01T00:13:51;2.95;;;2.28;;
22191;SDS011;11261;52.456;10.850;2022-08-01T00:16:19;4.05;;;2.95;;
22191;SDS011;11261;52.456;10.850;2022-08-01T00:18:50;3.40;;;2.55;;
22191;SDS011;11261;52.456;10.850;2022-08-01T00:21:18;5.32;;;2.70;;
22191;SDS011;11261;52.456;10.850;2022-08-01T00:23:47;3.47;;;2.90;;
22191;SDS011;11261;52.456;10.850;2022-08-01T00:26:15;6.57;;;3.10;;
22191;SDS011;11261;52.456;10.850;2022-08-01T00:28:43;4.63;;;2.83;;
22191;SDS011;11261;52.456;10.850;2022-08-01T00:31:11;4.32;;;2.92;;
22191;SDS011;11261;52.456;10.850;2022-08-01T00:33:40;3.40;;;2.65;;
22191;SDS011;11261;52.456;10.850;2022-08-01T00:36:09;3.78;;;3.42;;
22191;SDS011;11261;52.456;10.850;2022-08-01T00:38:38;5.22;;;3.53;;
22191;SDS011;11261;52.456;10.850;2022-08-01T00:41:06;3.58;;;2.85;;
22191;SDS011;11261;52.456;10.850;2022-08-01T00:43:34;4.93;;;3.10;;
22191;SDS011;11261;52.456;10.850;2022-08-01T00:46:02;8.25;;;2.78;;
22191;SDS011;11261;52.456;10.850;2022-08-01T00:48:30;4.88;;;2.88;;
22191;SDS011;11261;52.456;10.850;2022-08-01T00:50:59;2.95;;;2.20;;
22191;SDS011;11261;52.456;10.850;2022-08-01T00:53:28;2.47;;;1.95;;
22191;SDS011;11261;52.456;10.850;2022-08-01T00:56:17;3.97;;;2.47;;
22191;SDS011;11261;52.456;10.850;2022-08-01T00:58:46;3.85;;;3.45;;
22191;SDS011;11261;52.456;10.850;2022-08-01T01:01:15;3.63;;;2.40;;
22191;SDS011;11261;52.456;10.850;2022-08-01T01:03:44;2.30;;;2.08;;
22191;SDS011;11261;52.456;10.850;2022-08-01T01:06:30;3.65;;;3.15;;
22191;SDS011;11261;52.456;10.850;2022-08-01T01:09:17;3.67;;;2.72;;
22191;SDS011;11261;52.456;10.850;2022-08-01T01:11:54;3.60;;;2.40;;
22191;SDS011;11261;52.456;10.850;2022-08-01T01:14:42;3.03;;;2.60;;
22191;SDS011;11261;52.456;10.850;2022-08-01T01:17:17;2.88;;;2.10;;
22191;SDS011;11261;52.456;10.850;2022-08-01T01:20:11;4.63;;;3.03;;
22191;SDS011;11261;52.456;10.850;2022-08-01T01:31:20;4.05;;;2.88;;
22191;SDS011;11261;52.456;10.850;2022-08-01T01:33:51;3.80;;;2.33;;
22191;SDS011;11261;52.456;10.850;2022-08-01T01:36:21;4.40;;;3.10;;
22191;SDS011;11261;52.456;10.850;2022-08-01T01:38:51;4.82;;;2.72;;
22191;SDS011;11261;52.456;10.850;2022-08-01T01:41:22;3.90;;;2.40;;
22191;SDS011;11261;52.456;10.850;2022-08-01T01:43:52;3.72;;;2.88;;
22191;SDS011;11261;52.456;10.850;2022-08-01T01:46:22;4.47;;;3.03;;
22191;SDS011;11261;52.456;10.850;2022-08-01T01:48:53;2.58;;;2.38;;
22191;SDS011;11261;52.456;10.850;2022-08-01T01:51:24;2.85;;;2.45;;
22191;SDS011;11261;52.456;10.850;2022-08-01T01:53:55;3.17;;;2.55;;
22191;SDS011;11261;52.456;10.850;2022-08-01T01:56:24;3.53;;;2.38;;
22191;SDS011;11261;52.456;10.850;2022-08-01T01:58:56;3.13;;;2.53;;
22191;SDS011;11261;52.456;10.850;2022-08-01T02:01:28;2.72;;;2.50;;
22191;SDS011;11261;52.456;10.850;2022-08-01T02:04:18;3.10;;;2.60;;
22191;SDS011;11261;52.456;10.850;2022-08-01T02:06:50;3.30;;;2.30;;
22191;SDS011;11261;52.456;10.850;2022-08-01T02:09:21;3.03;;;2.67;;
22191;SDS011;11261;52.456;10.850;2022-08-01T02:11:50;3.83;;;2.90;;
22191;SDS011;11261;52.456;10.850;2022-08-01T02:14:36;4.55;;;2.90;;
22191;SDS011;11261;52.456;10.850;2022-08-01T02:17:06;5.05;;;2.92;;
22191;SDS011;11261;52.456;10.850;2022-08-01T02:19:38;4.82;;;3.22;;
22191;SDS011;11261;52.456;10.850;2022-08-01T02:22:08;2.38;;;2.10;;
22191;SDS011;11261;52.456;10.850;2022-08-01T02:24:39;4.20;;;2.72;;
22191;SDS011;11261;52.456;10.850;2022-08-01T02:27:12;2.60;;;2.28;;
22191;SDS011;11261;52.456;10.850;2022-08-01T02:29:47;3.80;;;2.17;;
22191;SDS011;11261;52.456;10.850;2022-08-01T02:32:20;2.10;;;1.90;;
22191;SDS011;11261;52.456;10.850;2022-08-01T02:34:53;2.53;;;2.08;;
22191;SDS011;11261;52.456;10.850;2022-08-01T02:37:24;2.65;;;2.13;;
22191;SDS011;11261;52.456;10.850;2022-08-01T02:39:56;2.75;;;2.10;;
22191;SDS011;11261;52.456;10.850;2022-08-01T02:42:25;2.00;;;1.70;;
22191;SDS011;11261;52.456;10.850;2022-08-01T02:44:57;5.25;;;1.92;;
22191;SDS011;11261;52.456;10.850;2022-08-01T02:47:26;4.35;;;2.33;;
22191;SDS011;11261;52.456;10.850;2022-08-01T02:49:56;3.00;;;1.88;;
22191;SDS011;11261;52.456;10.850;2022-08-01T02:52:27;2.10;;;1.90;;
22191;SDS011;11261;52.456;10.850;2022-08-01T02:54:58;2.65;;;2.22;;
22191;SDS011;11261;52.456;10.850;2022-08-01T02:57:28;2.08;;;1.85;;
22191;SDS011;11261;52.456;10.850;2022-08-01T03:00:18;2.42;;;2.20;;
22191;SDS011;11261;52.456;10.850;2022-08-01T03:02:50;6.05;;;2.92;;
22191;SDS011;11261;52.456;10.850;2022-08-01T03:05:21;4.82;;;3.20;;
22191;SDS011;11261;52.456;10.850;2022-08-01T03:07:51;2.95;;;2.40;;
22191;SDS011;11261;52.456;10.850;2022-08-01T03:10:28;2.75;;;2.30;;
22191;SDS011;11261;52.456;10.850;2022-08-01T03:12:58;4.68;;;3.63;;
22191;SDS011;11261;52.456;10.850;2022-08-01T03:15:31;3.13;;;2.20;;
22191;SDS011;11261;52.456;10.850;2022-08-01T03:18:01;5.63;;;3.80;;
22191;SDS011;11261;52.456;10.850;2022-08-01T03:20:32;5.28;;;3.30;;
22191;SDS011;11261;52.456;10.850;2022-08-01T03:23:03;3.17;;;2.80;;
22191;SDS011;11261;52.456;10.850;2022-08-01T03:25:34;7.65;;;3.60;;
22191;SDS011;11261;52.456;10.850;2022-08-01T03:28:06;5.53;;;3.88;;
22191;SDS011;11261;52.456;10.850;2022-08-01T03:30:37;2.50;;;2.30;;
22191;SDS011;11261;52.456;10.850;2022-08-01T03:33:07;4.10;;;3.40;;
22191;SDS011;11261;52.456;10.850;2022-08-01T03:35:52;3.67;;;3.22;;
22191;SDS011;11261;52.456;10.850;2022-08-01T03:38:22;3.15;;;2.10;;
22191;SDS011;11261;52.456;10.850;2022-08-01T03:40:53;3.58;;;3.10;;
22191;SDS011;11261;52.456;10.850;2022-08-01T03:43:27;2.95;;;2.58;;
22191;SDS011;11261;52.456;10.850;2022-08-01T03:46:04;2.80;;;2.55;;
22191;SDS011;11261;52.456;10.850;2022-08-01T03:48:37;3.22;;;2.20;;
22191;SDS011;11261;52.456;10.850;2022-08-01T03:51:08;3.92;;;2.20;;
22191;SDS011;11261;52.456;10.850;2022-08-01T03:53:38;2.00;;;1.80;;
22191;SDS011;11261;52.456;10.850;2022-08-01T03:56:09;2.22;;;1.90;;
22191;SDS011;11261;52.456;10.850;2022-08-01T03:58:39;1.90;;;1.80;;
22191;SDS011;11261;52.456;10.850;2022-08-01T04:01:10;1.85;;;1.67;;
22191;SDS011;11261;52.456;10.850;2022-08-01T04:03:41;2.20;;;1.67;;
22191;SDS011;11261;52.456;10.850;2022-08-01T04:06:10;2.78;;;1.70;;
22191;SDS011;11261;52.456;10.850;2022-08-01T04:08:40;1.92;;;1.73;;
22191;SDS011;11261;52.456;10.850;2022-08-01T04:11:09;2.05;;;1.67;;
22191;SDS011;11261;52.456;10.850;2022-08-01T04:13:37;1.40;;;1.30;;
22191;SDS011;11261;52.456;10.850;2022-08-01T04:16:11;4.28;;;1.92;;
22191;SDS011;11261;52.456;10.850;2022-08-01T04:18:39;1.77;;;1.42;;
22191;SDS011;11261;52.456;10.850;2022-08-01T04:21:07;1.42;;;1.33;;
22191;SDS011;11261;52.456;10.850;2022-08-01T04:23:35;1.35;;;1.25;;
22191;SDS011;11261;52.456;10.850;2022-08-01T04:26:08;2.22;;;1.58;;
22191;SDS011;11261;52.456;10.850;2022-08-01T04:28:38;1.48;;;1.38;;
22191;SDS011;11261;52.456;10.850;2022-08-01T04:31:09;1.40;;;1.30;;
22191;SDS011;11261;52.456;10.850;2022-08-01T04:33:42;1.30;;;1.17;;
22191;SDS011;11261;52.456;10.850;2022-08-01T04:36:13;1.80;;;1.70;;
22191;SDS011;11261;52.456;10.850;2022-08-01T04:38:45;1.80;;;1.70;;
22191;SDS011;11261;52.456;10.850;2022-08-01T04:41:17;2.28;;;1.75;;
22191;SDS011;11261;52.456;10.850;2022-08-01T04:43:46;1.80;;;1.63;;
22191;SDS011;11261;52.456;10.850;2022-08-01T04:46:15;1.77;;;1.67;;
22191;SDS011;11261;52.456;10.850;2022-08-01T04:48:45;1.77;;;1.65;;
22191;SDS011;11261;52.456;10.850;2022-08-01T04:51:14;2.17;;;1.60;;
22191;SDS011;11261;52.456;10.850;2022-08-01T04:53:42;2.00;;;1.80;;
22191;SDS011;11261;52.456;10.850;2022-08-01T04:56:12;1.90;;;1.60;;
22191;SDS011;11261;52.456;10.850;2022-08-01T04:58:41;1.88;;;1.67;;
22191;SDS011;11261;52.456;10.850;2022-08-01T05:01:09;2.30;;;1.73;;
22191;SDS011;11261;52.456;10.850;2022-08-01T05:03:39;2.38;;;1.92;;
22191;SDS011;11261;52.456;10.850;2022-08-01T05:06:08;3.10;;;1.88;;
22191;SDS011;11261;52.456;10.850;2022-08-01T05:08:36;2.00;;;1.80;;
22191;SDS011;11261;52.456;10.850;2022-08-01T05:11:04;1.98;;;1.73;;
22191;SDS011;11261;52.456;10.850;2022-08-01T05:13:32;2.17;;;1.90;;
22191;SDS011;11261;52.456;10.850;2022-08-01T05:16:01;2.83;;;2.17;;
22191;SDS011;11261;52.456;10.850;2022-08-01T05:18:30;2.53;;;2.00;;
22191;SDS011;11261;52.456;10.850;2022-08-01T05:20:59;3.20;;;2.47;;
22191;SDS011;11261;52.456;10.850;2022-08-01T05:23:28;3.20;;;2.58;;
22191;SDS011;11261;52.456;10.850;2022-08-01T05:26:08;5.55;;;2.85;;
22191;SDS011;11261;52.456;10.850;2022-08-01T05:28:39;2.85;;;2.17;;
22191;SDS011;11261;52.456;10.850;2022-08-01T05:31:08;2.80;;;2.38;;
22191;SDS011;11261;52.456;10.850;2022-08-01T05:33:36;3.95;;;2.67;;
22191;SDS011;11261;52.456;10.850;2022-08-01T05:36:06;3.40;;;2.65;;
22191;SDS011;11261;52.456;10.850;2022-08-01T05:38:34;5.88;;;3.20;;
22191;SDS011;11261;52.456;10.850;2022-08-01T05:41:02;3.78;;;2.65;;
22191;SDS011;11261;52.456;10.850;2022-08-01T05:43:30;3.38;;;2.85;;
22191;SDS011;11261;52.456;10.850;2022-08-01T05:45:59;3.55;;;2.70;;
22191;SDS011;11261;52.456;10.850;2022-08-01T05:48:27;3.17;;;2.17;;
22191;SDS011;11261;52.456;10.850;2022-08-01T05:50:56;3.28;;;2.45;;
22191;SDS011;11261;52.456;10.850;2022-08-01T05:53:26;3.50;;;2.30;;
22191;SDS011;11261;52.456;10.850;2022-08-01T05:55:54;2.80;;;2.53;;
22191;SDS011;11261;52.456;10.850;2022-08-01T05:58:23;3.42;;;2.70;;
22191;SDS011;11261;52.456;10.850;2022-08-01T06:00:51;4.90;;;3.00;;
22191;SDS011;11261;52.456;10.850;2022-08-01T06:03:19;3.13;;;2.83;;
22191;SDS011;11261;52.456;10.850;2022-08-01T06:05:47;2.92;;;2.63;;
22191;SDS011;11261;52.456;10.850;2022-08-01T06:08:15;4.13;;;2.58;;
22191;SDS011;11261;52.456;10.850;2022-08-01T06:10:44;3.97;;;2.97;;
22191;SDS011;11261;52.456;10.850;2022-08-01T06:13:13;2.50;;;2.20;;
22191;SDS011;11261;52.456;10.850;2022-08-01T06:15:41;4.10;;;2.65;;
22191;SDS011;11261;52.456;10.850;2022-08-01T06:18:09;2.50;;;2.15;;
22191;SDS011;11261;52.456;10.850;2022-08-01T06:20:37;2.22;;;1.88;;
22191;SDS011;11261;52.456;10.850;2022-08-01T06:23:05;1.60;;;1.50;;
22191;SDS011;11261;52.456;10.850;2022-08-01T06:25:55;2.00;;;1.80;;
22191;SDS011;11261;52.456;10.850;2022-08-01T06:28:24;2.10;;;1.77;;
22191;SDS011;11261;52.456;10.850;2022-08-01T06:30:52;2.58;;;1.75;;
22191;SDS011;11261;52.456;10.850;2022-08-01T06:33:20;2.20;;;1.88;;
22191;SDS011;11261;52.456;10.850;2022-08-01T06:35:48;1.90;;;1.63;;
22191;SDS011;11261;52.456;10.850;2022-08-01T06:38:16;2.65;;;1.67;;
22191;SDS011;11261;52.456;10.850;2022-08-01T06:40:44;1.70;;;1.60;;
22191;SDS011;11261;52.456;10.850;2022-08-01T06:43:14;2.78;;;1.63;;
22191;SDS011;11261;52.456;10.850;2022-08-01T06:45:42;1.40;;;1.30;;
22191;SDS011;11261;52.456;10.850;2022-08-01T06:48:10;1.60;;;1.50;;
22191;SDS011;11261;52.456;10.850;2022-08-01T06:50:38;1.67;;;1.48;;
22191;SDS011;11261;52.456;10.850;2022-08-01T06:53:07;1.40;;;1.30;;
22191;SDS011;11261;52.456;10.850;2022-08-01T06:55:35;1.92;;;1.50;;
22191;SDS011;11261;52.456;10.850;2022-08-01T06:58:03;1.75;;;1.10;;
22191;SDS011;11261;52.456;10.850;2022-08-01T07:00:32;1.52;;;1.17;;
22191;SDS011;11261;52.456;10.850;2022-08-01T07:03:01;1.58;;;1.08;;
22191;SDS011;11261;52.456;10.850;2022-08-01T07:05:29;1.48;;;0.80;;
22191;SDS011;11261;52.456;10.850;2022-08-01T07:07:57;1.02;;;0.80;;
22191;SDS011;11261;52.456;10.850;2022-08-01T07:10:25;1.20;;;0.80;;
22191;SDS011;11261;52.456;10.850;2022-08-01T07:12:53;0.82;;;0.77;;
22191;SDS011;11261;52.456;10.850;2022-08-01T07:15:22;0.60;;;0.60;;
22191;SDS011;11261;52.456;10.850;2022-08-01T07:17:54;2.53;;;0.70;;
22191;SDS011;11261;52.456;10.850;2022-08-01T07:20:23;1.02;;;0.88;;
22191;SDS011;11261;52.456;10.850;2022-08-01T07:22:51;0.70;;;0.70;;
22191;SDS011;11261;52.456;10.850;2022-08-01T07:25:22;0.80;;;0.80;;
22191;SDS011;11261;52.456;10.850;2022-08-01T07:27:50;2.45;;;0.88;;
22191;SDS011;11261;52.456;10.850;2022-08-01T07:30:19;1.13;;;0.70;;
22191;SDS011;11261;52.456;10.850;2022-08-01T07:32:47;0.77;;;0.70;;
22191;SDS011;11261;52.456;10.850;2022-08-01T07:35:16;0.85;;;0.70;;
22191;SDS011;11261;52.456;10.850;2022-08-01T07:37:45;0.95;;;0.95;;
22191;SDS011;11261;52.456;10.850;2022-08-01T07:40:15;0.98;;;0.73;;
22191;SDS011;11261;52.456;10.850;2022-08-01T07:42:44;0.75;;;0.75;;
22191;SDS011;11261;52.456;10.850;2022-08-01T07:45:12;1.08;;;0.77;;
22191;SDS011;11261;52.456;10.850;2022-08-01T07:47:41;0.68;;;0.68;;
22191;SDS011;11261;52.456;10.850;2022-08-01T07:50:09;0.40;;;0.40;;
22191;SDS011;11261;52.456;10.850;2022-08-01T07:52:40;0.70;;;0.63;;
22191;SDS011;11261;52.456;10.850;2022-08-01T07:55:09;0.45;;;0.43;;
22191;SDS011;11261;52.456;10.850;2022-08-01T07:57:42;1.20;;;0.68;;
22191;SDS011;11261;52.456;10.850;2022-08-01T08:00:11;0.65;;;0.65;;
22191;SDS011;11261;52.456;10.850;2022-08-01T08:02:39;0.93;;;0.70;;
22191;SDS011;11261;52.456;10.850;2022-08-01T08:05:08;0.50;;;0.50;;
22191;SDS011;11261;52.456;10.850;2022-08-01T08:07:37;2.15;;;0.60;;
22191;SDS011;11261;52.456;10.850;2022-08-01T08:10:07;1.17;;;0.60;;
22191;SDS011;11261;52.456;10.850;2022-08-01T08:12:35;0.70;;;0.70;;
22191;SDS011;11261;52.456;10.850;2022-08-01T08:15:04;0.73;;;0.73;;
22191;SDS011;11261;52.456;10.850;2022-08-01T08:17:33;0.55;;;0.55;;
22191;SDS011;11261;52.456;10.850;2022-08-01T08:20:02;0.85;;;0.70;;
22191;SDS011;11261;52.456;10.850;2022-08-01T08:22:34;1.17;;;0.70;;
22191;SDS011;11261;52.456;10.850;2022-08-01T08:25:03;0.70;;;0.70;;
22191;SDS011;11261;52.456;10.850;2022-08-01T08:27:34;0.77;;;0.60;;
22191;SDS011;11261;52.456;10.850;2022-08-01T08:30:04;0.80;;;0.50;;
22191;SDS011;11261;52.456;10.850;2022-08-01T08:32:34;0.65;;;0.60;;
22191;SDS011;11261;52.456;10.850;2022-08-01T08:35:02;0.80;;;0.70;;
22191;SDS011;11261;52.456;10.850;2022-08-01T08:37:32;0.65;;;0.60;;
22191;SDS011;11261;52.456;10.850;2022-08-01T08:40:04;1.33;;;0.50;;
22191;SDS011;11261;52.456;10.850;2022-08-01T08:42:35;4.10;;;1.10;;
22191;SDS011;11261;52.456;10.850;2022-08-01T08:45:07;1.80;;;0.70;;
22191;SDS011;11261;52.456;10.850;2022-08-01T08:47:37;0.90;;;0.73;;
22191;SDS011;11261;52.456;10.850;2022-08-01T08:50:06;0.65;;;0.65;;
22191;SDS011;11261;52.456;10.850;2022-08-01T08:52:35;0.70;;;0.70;;
22191;SDS011;11261;52.456;10.850;2022-08-01T08:55:06;1.13;;;0.60;;
22191;SDS011;11261;52.456;10.850;2022-08-01T08:57:37;1.63;;;0.70;;
22191;SDS011;11261;52.456;10.850;2022-08-01T09:00:08;1.75;;;0.60;;
22191;SDS011;11261;52.456;10.850;2022-08-01T09:02:40;0.80;;;0.80;;
22191;SDS011;11261;52.456;10.850;2022-08-01T09:05:09;0.75;;;0.70;;
22191;SDS011;11261;52.456;10.850;2022-08-01T09:07:44;1.40;;;0.60;;
22191;SDS011;11261;52.456;10.850;2022-08-01T09:10:12;0.60;;;0.60;;
22191;SDS011;11261;52.456;10.850;2022-08-01T09:12:54;0.85;;;0.70;;
22191;SDS011;11261;52.456;10.850;2022-08-01T09:15:37;1.50;;;0.90;;
22191;SDS011;11261;52.456;10.850;2022-08-01T09:18:07;1.25;;;0.90;;
22191;SDS011;11261;52.456;10.850;2022-08-01T09:20:35;1.42;;;0.60;;
22191;SDS011;11261;52.456;10.850;2022-08-01T09:23:03;0.82;;;0.77;;
22191;SDS011;11261;52.456;10.850;2022-08-01T09:25:31;1.95;;;0.45;;
22191;SDS011;11261;52.456;10.850;2022-08-01T09:28:28;15.20;;;3.45;;
22191;SDS011;11261;52.456;10.850;2022-08-01T09:30:57;21.27;;;4.80;;
22191;SDS011;11261;52.456;10.850;2022-08-01T09:33:26;4.68;;;1.80;;
22191;SDS011;11261;52.456;10.850;2022-08-01T09:36:17;5.57;;;1.40;;
22191;SDS011;11261;52.456;10.850;2022-08-01T09:38:45;2.67;;;0.85;;
22191;SDS011;11261;52.456;10.850;2022-08-01T09:41:16;0.60;;;0.60;;
22191;SDS011;11261;52.456;10.850;2022-08-01T09:43:51;1.85;;;0.50;;
22191;SDS011;11261;52.456;10.850;2022-08-01T09:46:19;0.50;;;0.40;;
22191;SDS011;11261;52.456;10.850;2022-08-01T09:48:54;1.40;;;0.70;;
22191;SDS011;11261;52.456;10.850;2022-08-01T09:51:29;3.90;;;0.63;;
22191;SDS011;11261;52.456;10.850;2022-08-01T09:54:27;1.05;;;0.70;;
22191;SDS011;11261;52.456;10.850;2022-08-01T09:57:07;0.55;;;0.55;;
22191;SDS011;11261;52.456;10.850;2022-08-01T09:59:39;0.82;;;0.47;;
22191;SDS011;11261;52.456;10.850;2022-08-01T10:02:28;1.27;;;0.50;;
22191;SDS011;11261;52.456;10.850;2022-08-01T10:05:00;1.40;;;0.60;;
22191;SDS011;11261;52.456;10.850;2022-08-01T10:07:34;0.50;;;0.50;;
22191;SDS011;11261;52.456;10.850;2022-08-01T10:10:10;0.50;;;0.50;;
22191;SDS011;11261;52.456;10.850;2022-08-01T10:12:40;0.50;;;0.50;;
22191;SDS011;11261;52.456;10.850;2022-08-01T10:15:12;1.27;;;0.40;;
22191;SDS011;11261;52.456;10.850;2022-08-01T10:17:46;0.40;;;0.40;;
22191;SDS011;11261;52.456;10.850;2022-08-01T10:20:23;0.60;;;0.60;;
22191;SDS011;11261;52.456;10.850;2022-08-01T10:22:58;1.10;;;0.40;;
22191;SDS011;11261;52.456;10.850;2022-08-01T10:25:34;0.40;;;0.40;;
22191;SDS011;11261;52.456;10.850;2022-08-01T10:28:13;0.85;;;0.60;;
22191;SDS011;11261;52.456;10.850;2022-08-01T10:30:50;0.63;;;0.40;;
22191;SDS011;11261;52.456;10.850;2022-08-01T10:33:21;0.45;;;0.45;;
22191;SDS011;11261;52.456;10.850;2022-08-01T10:36:10;1.10;;;0.50;;
22191;SDS011;11261;52.456;10.850;2022-08-01T10:38:38;0.30;;;0.30;;
22191;SDS011;11261;52.456;10.850;2022-08-01T10:41:09;0.40;;;0.40;;
22191;SDS011;11261;52.456;10.850;2022-08-01T10:43:41;0.60;;;0.60;;
22191;SDS011;11261;52.456;10.850;2022-08-01T10:46:13;0.40;;;0.40;;
22191;SDS011;11261;52.456;10.850;2022-08-01T10:48:46;0.40;;;0.40;;
22191;SDS011;11261;52.456;10.850;2022-08-01T10:51:20;0.30;;;0.30;;
22191;SDS011;11261;52.456;10.850;2022-08-01T10:54:09;0.38;;;0.35;;
22191;SDS011;11261;52.456;10.850;2022-08-01T10:56:39;0.30;;;0.30;;
22191;SDS011;11261;52.456;10.850;2022-08-01T10:59:10;0.20;;;0.20;;
22191;SDS011;11261;52.456;10.850;2022-08-01T11:02:04;0.98;;;0.47;;
22191;SDS011;11261;52.456;10.850;2022-08-01T11:04:33;0.43;;;0.43;;
22191;SDS011;11261;52.456;10.850;2022-08-01T11:07:11;1.65;;;0.35;;
22191;SDS011;11261;52.456;10.850;2022-08-01T11:09:58;2.17;;;0.47;;
22191;SDS011;11261;52.456;10.850;2022-08-01T11:12:40;0.93;;;0.40;;
22191;SDS011;11261;52.456;10.850;2022-08-01T11:15:17;1.27;;;0.50;;
22191;SDS011;11261;52.456;10.850;2022-08-01T11:18:01;0.38;;;0.30;;
22191;SDS011;11261;52.456;10.850;2022-08-01T11:20:32;0.70;;;0.50;;
22191;SDS011;11261;52.456;10.850;2022-08-01T11:23:16;1.25;;;0.60;;
22191;SDS011;11261;52.456;10.850;2022-08-01T11:29:11;0.40;;;0.40;;
22191;SDS011;11261;52.456;10.850;2022-08-01T11:31:48;0.50;;;0.50;;
22191;SDS011;11261;52.456;10.850;2022-08-01T11:34:20;1.55;;;0.40;;
22191;SDS011;11261;52.456;10.850;2022-08-01T11:37:24;0.50;;;0.50;;
22191;SDS011;11261;52.456;10.850;2022-08-01T11:40:15;0.40;;;0.40;;
22191;SDS011;11261;52.456;10.850;2022-08-01T11:42:44;1.17;;;0.50;;
22191;SDS011;11261;52.456;10.850;2022-08-01T11:45:13;1.23;;;0.90;;
22191;SDS011;11261;52.456;10.850;2022-08-01T11:47:44;4.00;;;0.50;;
22191;SDS011;11261;52.456;10.850;2022-08-01T11:50:35;0.55;;;0.50;;
22191;SDS011;11261;52.456;10.850;2022-08-01T11:53:05;0.60;;;0.50;;
22191;SDS011;11261;52.456;10.850;2022-08-01T11:55:36;1.45;;;0.50;;
22191;SDS011;11261;52.456;10.850;2022-08-01T11:58:20;1.35;;;0.60;;
22191;SDS011;11261;52.456;10.850;2022-08-01T12:00:57;1.42;;;0.93;;
22191;SDS011;11261;52.456;10.850;2022-08-01T12:03:26;1.63;;;0.60;;
22191;SDS011;11261;52.456;10.850;2022-08-01T12:06:00;0.93;;;0.52;;
22191;SDS011;11261;52.456;10.850;2022-08-01T12:08:31;1.27;;;0.70;;
22191;SDS011;11261;52.456;10.850;2022-08-01T12:11:01;0.98;;;0.63;;
22191;SDS011;11261;52.456;10.850;2022-08-01T12:13:38;1.05;;;0.55;;
22191;SDS011;11261;52.456;10.850;2022-08-01T12:16:08;1.05;;;0.60;;
22191;SDS011;11261;52.456;10.850;2022-08-01T12:18:37;0.82;;;0.60;;
22191;SDS011;11261;52.456;10.850;2022-08-01T12:21:07;3.58;;;0.60;;
22191;SDS011;11261;52.456;10.850;2022-08-01T12:23:36;2.33;;;0.70;;
22191;SDS011;11261;52.456;10.850;2022-08-01T12:26:04;0.60;;;0.60;;
22191;SDS011;11261;52.456;10.850;2022-08-01T12:28:38;0.93;;;0.70;;
22191;SDS011;11261;52.456;10.850;2022-08-01T12:31:06;1.00;;;0.65;;
22191;SDS011;11261;52.456;10.850;2022-08-01T12:33:38;0.90;;;0.55;;
22191;SDS011;11261;52.456;10.850;2022-08-01T12:36:07;0.80;;;0.68;;
22191;SDS011;11261;52.456;10.850;2022-08-01T12:38:40;1.33;;;0.85;;
22191;SDS011;11261;52.456;10.850;2022-08-01T12:41:10;3.38;;;0.68;;
22191;SDS011;11261;52.456;10.850;2022-08-01T12:43:38;1.08;;;0.60;;
22191;SDS011;11261;52.456;10.850;2022-08-01T12:46:07;3.08;;;0.88;;
22191;SDS011;11261;52.456;10.850;2022-08-01T12:48:42;1.23;;;0.63;;
22191;SDS011;11261;52.456;10.850;2022-08-01T12:51:12;1.60;;;0.80;;
22191;SDS011;11261;52.456;10.850;2022-08-01T12:53:40;2.38;;;0.80;;
22191;SDS011;11261;52.456;10.850;2022-08-01T12:56:09;1.95;;;0.70;;
22191;SDS011;11261;52.456;10.850;2022-08-01T12:58:37;1.98;;;0.82;;
22191;SDS011;11261;52.456;10.850;2022-08-01T13:01:06;0.75;;;0.57;;
22191;SDS011;11261;52.456;10.850;2022-08-01T13:03:36;3.75;;;0.80;;
22191;SDS011;11261;52.456;10.850;2022-08-01T13:06:10;1.63;;;0.52;;
22191;SDS011;11261;52.456;10.850;2022-08-01T13:08:42;2.60;;;0.80;;
22191;SDS011;11261;52.456;10.850;2022-08-01T13:11:12;0.98;;;0.70;;
22191;SDS011;11261;52.456;10.850;2022-08-01T13:13:43;2.33;;;0.70;;
22191;SDS011;11261;52.456;10.850;2022-08-01T13:16:13;1.20;;;0.90;;
22191;SDS011;11261;52.456;10.850;2022-08-01T13:19:02;1.13;;;0.68;;
22191;SDS011;11261;52.456;10.850;2022-08-01T13:21:32;2.00;;;0.77;;
22191;SDS011;11261;52.456;10.850;2022-08-01T13:24:23;1.70;;;0.88;;
22191;SDS011;11261;52.456;10.850;2022-08-01T13:26:53;1.52;;;0.77;;
22191;SDS011;11261;52.456;10.850;2022-08-01T13:29:30;1.45;;;0.60;;
22191;SDS011;11261;52.456;10.850;2022-08-01T13:32:00;1.75;;;0.68;;
22191;SDS011;11261;52.456;10.850;2022-08-01T13:35:00;0.82;;;0.65;;
22191;SDS011;11261;52.456;10.850;2022-08-01T13:37:31;1.73;;;0.73;;
22191;SDS011;11261;52.456;10.850;2022-08-01T13:39:59;0.50;;;0.47;;
22191;SDS011;11261;52.456;10.850;2022-08-01T13:42:27;2.60;;;0.82;;
22191;SDS011;11261;52.456;10.850;2022-08-01T13:44:56;1.45;;;0.55;;
22191;SDS011;11261;52.456;10.850;2022-08-01T13:47:25;2.88;;;0.70;;
22191;SDS011;11261;52.456;10.850;2022-08-01T13:49:57;1.80;;;0.70;;
22191;SDS011;11261;52.456;10.850;2022-08-01T13:52:27;2.30;;;1.20;;
22191;SDS011;11261;52.456;10.850;2022-08-01T13:54:58;1.30;;;0.88;;
22191;SDS011;11261;52.456;10.850;2022-08-01T13:57:27;1.42;;;0.65;;
22191;SDS011;11261;52.456;10.850;2022-08-01T14:00:02;0.85;;;0.55;;
22191;SDS011;11261;52.456;10.850;2022-08-01T14:02:31;1.55;;;0.60;;
22191;SDS011;11261;52.456;10.850;2022-08-01T14:05:00;1.50;;;0.68;;
22191;SDS011;11261;52.456;10.850;2022-08-01T14:07:29;1.17;;;0.80;;
22191;SDS011;11261;52.456;10.850;2022-08-01T14:09:58;3.00;;;0.65;;
22191;SDS011;11261;52.456;10.850;2022-08-01T14:12:45;2.28;;;0.50;;
22191;SDS011;11261;52.456;10.850;2022-08-01T14:15:13;2.53;;;0.90;;
22191;SDS011;11261;52.456;10.850;2022-08-01T14:18:02;1.35;;;0.70;;
22191;SDS011;11261;52.456;10.850;2022-08-01T14:20:31;2.08;;;0.70;;
22191;SDS011;11261;52.456;10.850;2022-08-01T14:23:00;2.25;;;0.80;;
22191;SDS011;11261;52.456;10.850;2022-08-01T14:25:35;3.67;;;0.90;;
22191;SDS011;11261;52.456;10.850;2022-08-01T14:28:23;3.75;;;1.08;;
22191;SDS011;11261;52.456;10.850;2022-08-01T14:30:53;4.57;;;1.60;;
22191;SDS011;11261;52.456;10.850;2022-08-01T14:33:22;3.25;;;1.17;;
22191;SDS011;11261;52.456;10.850;2022-08-01T14:35:51;2.25;;;0.80;;
22191;SDS011;11261;52.456;10.850;2022-08-01T14:38:32;1.77;;;0.98;;
22191;SDS011;11261;52.456;10.850;2022-08-01T14:41:01;1.05;;;0.82;;
22191;SDS011;11261;52.456;10.850;2022-08-01T14:43:30;1.67;;;0.93;;
22191;SDS011;11261;52.456;10.850;2022-08-01T14:45:59;1.45;;;0.70;;
22191;SDS011;11261;52.456;10.850;2022-08-01T14:48:30;1.95;;;0.90;;
22191;SDS011;11261;52.456;10.850;2022-08-01T14:50:58;1.95;;;0.80;;
22191;SDS011;11261;52.456;10.850;2022-08-01T14:53:29;1.92;;;0.90;;
22191;SDS011;11261;52.456;10.850;2022-08-01T14:56:02;0.93;;;0.70;;
22191;SDS011;11261;52.456;10.850;2022-08-01T14:58:31;1.95;;;0.90;;
22191;SDS011;11261;52.456;10.850;2022-08-01T15:00:59;2.25;;;0.90;;
22191;SDS011;11261;52.456;10.850;2022-08-01T15:03:28;1.50;;;1.05;;
22191;SDS011;11261;52.456;10.850;2022-08-01T15:05:57;1.30;;;0.73;;
22191;SDS011;11261;52.456;10.850;2022-08-01T15:08:26;2.63;;;1.10;;
22191;SDS011;11261;52.456;10.850;2022-08-01T15:10:56;2.95;;;1.00;;
22191;SDS011;11261;52.456;10.850;2022-08-01T15:13:25;1.35;;;0.90;;